sensor_id;sensor_type;location;lat;lon;timestamp;temperature;humidity
6174;DHT22;3120;48.796;9.796;2023-02-17T00:02:00;8.00;1.00
6174;DHT22;3120;48.796;9.796;2023-02-17T00:04:30;7.90;1.00
6174;DHT22;3120;48.796;9.796;2023-02-17T00:06:56;7.90;1.00
6174;DHT22;3120;48.796;9.796;2023-02-17T00:09:22;8.00;1.00
6174;DHT22;3120;48.796;9.796;2023-02-17T00:11:48;8.00;1.00
6174;DHT22;3120;48.796;9.796;2023-02-17T00:14:14;8.00;1.00
6174;DHT22;3120;48.796;9.796;2023-02-17T00:16:40;7.90;1.00
6174;DHT22;3120;48.796;9.796;2023-02-17T00:19:06;8.00;1.00
6174;DHT22;3120;48.796;9.796;2023-02-17T00:21:58;8.00;1.00
6174;DHT22;3120;48.796;9.796;2023-02-17T00:24:26;8.10;1.00
6174;DHT22;3120;48.796;9.796;2023-02-17T00:26:51;8.10;1.00
6174;DHT22;3120;48.796;9.796;2023-02-17T00:29:17;8.00;1.00
6174;DHT22;3120;48.796;9.796;2023-02-17T00:31:44;8.00;1.00
6174;DHT22;3120;48.796;9.796;2023-02-17T00:34:10;8.90;1.00
6174;DHT22;3120;48.796;9.796;2023-02-17T00:36:36;7.90;1.00
6174;DHT22;3120;48.796;9.796;2023-02-17T00:39:02;7.90;99.90
6174;DHT22;3120;48.796;9.796;2023-02-17T00:41:28;7.90;1.00
6174;DHT22;3120;48.796;9.796;2023-02-17T00:43:54;7.90;1.00
6174;DHT22;3120;48.796;9.796;2023-02-17T00:46:48;7.90;99.90
6174;DHT22;3120;48.796;9.796;2023-02-17T00:49:25;8.00;1.00
6174;DHT22;3120;48.796;9.796;2023-02-17T00:51:51;8.10;99.90
6174;DHT22;3120;48.796;9.796;2023-02-17T00:54:17;8.10;92.90
6174;DHT22;3120;48.796;9.796;2023-02-17T00:56:43;8.20;99.90
6174;DHT22;3120;48.796;9.796;2023-02-17T00:59:09;8.50;1.00
6174;DHT22;3120;48.796;9.796;2023-02-17T01:01:36;8.40;1.00
6174;DHT22;3120;48.796;9.796;2023-02-17T01:04:01;8.40;1.00
6174;DHT22;3120;48.796;9.796;2023-02-17T01:06:31;8.40;1.00
6174;DHT22;3120;48.796;9.796;2023-02-17T01:08:57;8.50;1.00
6174;DHT22;3120;48.796;9.796;2023-02-17T01:11:29;8.50;1.00
6174;DHT22;3120;48.796;9.796;2023-02-17T01:13:55;8.50;96.50
6174;DHT22;3120;48.796;9.796;2023-02-17T01:16:33;8.70;99.90
6174;DHT22;3120;48.796;9.796;2023-02-17T01:19:01;8.50;1.00
6174;DHT22;3120;48.796;9.796;2023-02-17T01:21:28;8.50;1.00
6174;DHT22;3120;48.796;9.796;2023-02-17T01:23:57;8.60;99.90
6174;DHT22;3120;48.796;9.796;2023-02-17T01:26:25;8.70;99.90
6174;DHT22;3120;48.796;9.796;2023-02-17T01:28:51;8.80;1.00
6174;DHT22;3120;48.796;9.796;2023-02-17T01:31:19;9.00;99.90
6174;DHT22;3120;48.796;9.796;2023-02-17T01:33:44;8.90;99.90
6174;DHT22;3120;48.796;9.796;2023-02-17T01:36:12;9.00;99.90
6174;DHT22;3120;48.796;9.796;2023-02-17T01:38:38;9.10;99.90
6174;DHT22;3120;48.796;9.796;2023-02-17T01:41:04;9.90;1.00
6174;DHT22;3120;48.796;9.796;2023-02-17T01:43:30;9.30;1.00
6174;DHT22;3120;48.796;9.796;2023-02-17T01:45:58;9.40;99.90
6174;DHT22;3120;48.796;9.796;2023-02-17T01:48:54;9.40;99.90
6174;DHT22;3120;48.796;9.796;2023-02-17T01:51:23;9.40;99.90
6174;DHT22;3120;48.796;9.796;2023-02-17T01:53:57;9.60;63.40
6174;DHT22;3120;48.796;9.796;2023-02-17T01:56:25;9.60;1.00
6174;DHT22;3120;48.796;9.796;2023-02-17T01:58:56;9.70;1.00
6174;DHT22;3120;48.796;9.796;2023-02-17T02:01:24;9.70;1.00
6174;DHT22;3120;48.796;9.796;2023-02-17T02:03:50;9.80;1.00
6174;DHT22;3120;48.796;9.796;2023-02-17T02:06:20;9.90;1.00
6174;DHT22;3120;48.796;9.796;2023-02-17T02:09:02;10.00;99.90
6174;DHT22;3120;48.796;9.796;2023-02-17T02:11:28;10.00;99.90
6174;DHT22;3120;48.796;9.796;2023-02-17T02:13:54;11.00;99.90
6174;DHT22;3120;48.796;9.796;2023-02-17T02:16:42;10.20;99.90
6174;DHT22;3120;48.796;9.796;2023-02-17T02:28:36;10.20;99.90
6174;DHT22;3120;48.796;9.796;2023-02-17T02:34:08;10.40;99.90
6174;DHT22;3120;48.796;9.796;2023-02-17T02:39:20;10.30;99.90
6174;DHT22;3120;48.796;9.796;2023-02-17T02:41:54;10.40;99.90
6174;DHT22;3120;48.796;9.796;2023-02-17T02:44:20;10.40;80.70
6174;DHT22;3120;48.796;9.796;2023-02-17T02:47:03;10.40;99.90
6174;DHT22;3120;48.796;9.796;2023-02-17T02:49:32;10.40;99.90
6174;DHT22;3120;48.796;9.796;2023-02-17T02:57:43;10.20;99.90
6174;DHT22;3120;48.796;9.796;2023-02-17T03:00:21;10.20;99.90
6174;DHT22;3120;48.796;9.796;2023-02-17T03:02:58;10.10;99.90
6174;DHT22;3120;48.796;9.796;2023-02-17T03:08:12;10.20;99.90
6174;DHT22;3120;48.796;9.796;2023-02-17T03:10:51;10.10;99.90
6174;DHT22;3120;48.796;9.796;2023-02-17T03:13:34;10.00;99.90
6174;DHT22;3120;48.796;9.796;2023-02-17T03:16:04;10.00;99.90
6174;DHT22;3120;48.796;9.796;2023-02-17T03:18:34;9.90;1.00
6174;DHT22;3120;48.796;9.796;2023-02-17T03:21:13;9.80;1.00
6174;DHT22;3120;48.796;9.796;2023-02-17T03:23:39;9.90;99.90
6174;DHT22;3120;48.796;9.796;2023-02-17T03:26:04;9.90;1.00
6174;DHT22;3120;48.796;9.796;2023-02-17T03:28:30;9.90;99.90
6174;DHT22;3120;48.796;9.796;2023-02-17T03:30:56;10.00;99.90
6174;DHT22;3120;48.796;9.796;2023-02-17T03:33:21;10.00;99.90
6174;DHT22;3120;48.796;9.796;2023-02-17T03:35:47;9.90;1.00
6174;DHT22;3120;48.796;9.796;2023-02-17T03:38:13;9.90;1.00
6174;DHT22;3120;48.796;9.796;2023-02-17T03:40:39;9.90;1.00
6174;DHT22;3120;48.796;9.796;2023-02-17T03:43:04;9.90;99.90
6174;DHT22;3120;48.796;9.796;2023-02-17T03:45:30;10.00;99.90
6174;DHT22;3120;48.796;9.796;2023-02-17T03:47:56;10.30;99.90
6174;DHT22;3120;48.796;9.796;2023-02-17T03:50:21;10.10;99.90
6174;DHT22;3120;48.796;9.796;2023-02-17T03:52:47;10.00;99.90
6174;DHT22;3120;48.796;9.796;2023-02-17T03:55:12;10.00;1.00
6174;DHT22;3120;48.796;9.796;2023-02-17T03:57:38;10.50;1.00
6174;DHT22;3120;48.796;9.796;2023-02-17T04:00:13;10.00;1.00
6174;DHT22;3120;48.796;9.796;2023-02-17T04:02:39;10.00;1.00
6174;DHT22;3120;48.796;9.796;2023-02-17T04:05:05;10.40;1.00
6174;DHT22;3120;48.796;9.796;2023-02-17T04:07:30;10.10;1.00
6174;DHT22;3120;48.796;9.796;2023-02-17T04:09:56;10.10;1.00
6174;DHT22;3120;48.796;9.796;2023-02-17T04:12:22;10.10;1.00
6174;DHT22;3120;48.796;9.796;2023-02-17T04:14:47;10.10;1.00
6174;DHT22;3120;48.796;9.796;2023-02-17T04:17:13;10.00;15.50
6174;DHT22;3120;48.796;9.796;2023-02-17T04:19:38;10.70;1.00
6174;DHT22;3120;48.796;9.796;2023-02-17T04:22:04;10.20;99.90
6174;DHT22;3120;48.796;9.796;2023-02-17T04:24:36;9.90;99.90
6174;DHT22;3120;48.796;9.796;2023-02-17T04:27:03;9.90;99.90
6174;DHT22;3120;48.796;9.796;2023-02-17T04:29:30;9.80;99.90
6174;DHT22;3120;48.796;9.796;2023-02-17T04:31:55;9.80;1.00
6174;DHT22;3120;48.796;9.796;2023-02-17T04:34:21;9.80;1.00
6174;DHT22;3120;48.796;9.796;2023-02-17T04:36:47;9.80;1.00
6174;DHT22;3120;48.796;9.796;2023-02-17T04:39:12;9.80;1.00
6174;DHT22;3120;48.796;9.796;2023-02-17T04:41:38;9.80;1.00
6174;DHT22;3120;48.796;9.796;2023-02-17T04:44:04;9.90;1.00
6174;DHT22;3120;48.796;9.796;2023-02-17T04:46:29;10.00;1.00
6174;DHT22;3120;48.796;9.796;2023-02-17T04:48:55;10.00;1.00
6174;DHT22;3120;48.796;9.796;2023-02-17T04:51:20;10.00;72.40
6174;DHT22;3120;48.796;9.796;2023-02-17T04:53:46;10.00;99.90
6174;DHT22;3120;48.796;9.796;2023-02-17T04:56:12;10.00;99.90
6174;DHT22;3120;48.796;9.796;2023-02-17T04:58:37;10.50;99.90
6174;DHT22;3120;48.796;9.796;2023-02-17T05:01:03;10.10;99.90
6174;DHT22;3120;48.796;9.796;2023-02-17T05:03:28;10.10;99.90
6174;DHT22;3120;48.796;9.796;2023-02-17T05:05:54;10.20;99.90
6174;DHT22;3120;48.796;9.796;2023-02-17T05:08:20;10.20;99.90
6174;DHT22;3120;48.796;9.796;2023-02-17T05:10:45;10.20;99.90
6174;DHT22;3120;48.796;9.796;2023-02-17T05:13:11;10.20;99.90
6174;DHT22;3120;48.796;9.796;2023-02-17T05:15:37;10.20;99.90
6174;DHT22;3120;48.796;9.796;2023-02-17T05:18:19;11.00;99.90
6174;DHT22;3120;48.796;9.796;2023-02-17T05:20:45;10.20;1.00
6174;DHT22;3120;48.796;9.796;2023-02-17T05:23:10;10.10;1.00
6174;DHT22;3120;48.796;9.796;2023-02-17T05:25:36;10.10;1.00
6174;DHT22;3120;48.796;9.796;2023-02-17T05:28:02;10.10;1.00
6174;DHT22;3120;48.796;9.796;2023-02-17T05:30:27;10.00;99.90
6174;DHT22;3120;48.796;9.796;2023-02-17T05:32:53;10.10;33.80
6174;DHT22;3120;48.796;9.796;2023-02-17T05:35:18;10.10;99.90
6174;DHT22;3120;48.796;9.796;2023-02-17T05:37:44;10.10;99.90
6174;DHT22;3120;48.796;9.796;2023-02-17T05:40:10;10.10;99.90
6174;DHT22;3120;48.796;9.796;2023-02-17T05:42:35;10.00;1.00
6174;DHT22;3120;48.796;9.796;2023-02-17T05:45:01;10.00;1.00
6174;DHT22;3120;48.796;9.796;2023-02-17T05:47:28;10.00;49.00
6174;DHT22;3120;48.796;9.796;2023-02-17T05:49:54;10.10;99.90
6174;DHT22;3120;48.796;9.796;2023-02-17T05:54:51;10.00;99.90
6174;DHT22;3120;48.796;9.796;2023-02-17T05:57:17;10.00;99.90
6174;DHT22;3120;48.796;9.796;2023-02-17T05:59:45;10.00;1.00
6174;DHT22;3120;48.796;9.796;2023-02-17T06:08:01;9.90;1.00
6174;DHT22;3120;48.796;9.796;2023-02-17T06:10:27;10.00;1.00
6174;DHT22;3120;48.796;9.796;2023-02-17T06:12:53;10.10;99.90
6174;DHT22;3120;48.796;9.796;2023-02-17T06:15:19;10.00;1.00
6174;DHT22;3120;48.796;9.796;2023-02-17T06:17:45;10.20;1.00
6174;DHT22;3120;48.796;9.796;2023-02-17T06:20:11;10.00;1.00
6174;DHT22;3120;48.796;9.796;2023-02-17T06:22:37;10.00;99.90
6174;DHT22;3120;48.796;9.796;2023-02-17T06:25:03;10.00;1.00
6174;DHT22;3120;48.796;9.796;2023-02-17T06:27:28;9.90;1.00
6174;DHT22;3120;48.796;9.796;2023-02-17T06:29:54;10.70;1.00
6174;DHT22;3120;48.796;9.796;2023-02-17T06:32:20;10.00;1.00
6174;DHT22;3120;48.796;9.796;2023-02-17T06:34:45;10.80;99.90
6174;DHT22;3120;48.796;9.796;2023-02-17T06:37:11;9.90;99.90
6174;DHT22;3120;48.796;9.796;2023-02-17T06:39:36;10.00;12.90
6174;DHT22;3120;48.796;9.796;2023-02-17T06:42:02;10.10;69.40
6174;DHT22;3120;48.796;9.796;2023-02-17T06:44:27;10.00;99.90
6174;DHT22;3120;48.796;9.796;2023-02-17T06:46:53;10.10;1.00
6174;DHT22;3120;48.796;9.796;2023-02-17T06:49:19;11.00;1.00
6174;DHT22;3120;48.796;9.796;2023-02-17T06:51:44;10.00;70.70
6174;DHT22;3120;48.796;9.796;2023-02-17T06:54:10;10.10;99.90
6174;DHT22;3120;48.796;9.796;2023-02-17T06:56:35;12.20;99.90
6174;DHT22;3120;48.796;9.796;2023-02-17T06:59:02;11.60;1.00
6174;DHT22;3120;48.796;9.796;2023-02-17T07:01:28;11.80;99.90
6174;DHT22;3120;48.796;9.796;2023-02-17T07:03:54;12.10;1.00
6174;DHT22;3120;48.796;9.796;2023-02-17T07:06:21;10.20;99.90
6174;DHT22;3120;48.796;9.796;2023-02-17T07:08:48;11.60;99.90
6174;DHT22;3120;48.796;9.796;2023-02-17T07:11:14;11.60;61.90
6174;DHT22;3120;48.796;9.796;2023-02-17T07:13:40;10.30;1.00
6174;DHT22;3120;48.796;9.796;2023-02-17T07:16:06;10.30;1.00
6174;DHT22;3120;48.796;9.796;2023-02-17T07:18:32;12.00;16.90
6174;DHT22;3120;48.796;9.796;2023-02-17T07:20:58;10.30;99.90
6174;DHT22;3120;48.796;9.796;2023-02-17T07:23:23;11.80;76.40
6174;DHT22;3120;48.796;9.796;2023-02-17T07:25:49;12.10;99.90
6174;DHT22;3120;48.796;9.796;2023-02-17T07:28:15;10.40;1.00
6174;DHT22;3120;48.796;9.796;2023-02-17T07:30:41;10.40;1.00
6174;DHT22;3120;48.796;9.796;2023-02-17T07:33:08;10.50;1.00
6174;DHT22;3120;48.796;9.796;2023-02-17T07:35:34;10.50;1.00
6174;DHT22;3120;48.796;9.796;2023-02-17T07:38:00;11.10;66.40
6174;DHT22;3120;48.796;9.796;2023-02-17T07:40:26;11.90;99.90
6174;DHT22;3120;48.796;9.796;2023-02-17T07:42:53;10.50;99.90
6174;DHT22;3120;48.796;9.796;2023-02-17T07:45:19;10.90;1.00
6174;DHT22;3120;48.796;9.796;2023-02-17T07:47:44;10.50;99.90
6174;DHT22;3120;48.796;9.796;2023-02-17T07:50:12;10.60;55.00
6174;DHT22;3120;48.796;9.796;2023-02-17T07:52:38;10.60;99.90
6174;DHT22;3120;48.796;9.796;2023-02-17T07:55:04;11.00;1.00
6174;DHT22;3120;48.796;9.796;2023-02-17T07:57:29;10.60;99.90
6174;DHT22;3120;48.796;9.796;2023-02-17T07:59:55;10.60;33.50
6174;DHT22;3120;48.796;9.796;2023-02-17T08:02:20;10.60;99.90
6174;DHT22;3120;48.796;9.796;2023-02-17T08:04:46;10.50;99.90
6174;DHT22;3120;48.796;9.796;2023-02-17T08:07:12;10.60;1.00
6174;DHT22;3120;48.796;9.796;2023-02-17T08:09:37;10.60;1.00
6174;DHT22;3120;48.796;9.796;2023-02-17T08:12:21;11.70;99.90
6174;DHT22;3120;48.796;9.796;2023-02-17T08:15:07;12.20;1.00
6174;DHT22;3120;48.796;9.796;2023-02-17T08:17:33;10.60;69.70
6174;DHT22;3120;48.796;9.796;2023-02-17T08:19:59;12.10;1.00
6174;DHT22;3120;48.796;9.796;2023-02-17T08:22:25;10.50;99.90
6174;DHT22;3120;48.796;9.796;2023-02-17T08:24:50;10.50;99.90
6174;DHT22;3120;48.796;9.796;2023-02-17T08:27:17;11.80;99.90
6174;DHT22;3120;48.796;9.796;2023-02-17T08:29:43;11.60;99.90
6174;DHT22;3120;48.796;9.796;2023-02-17T08:32:09;12.50;1.00
6174;DHT22;3120;48.796;9.796;2023-02-17T08:34:35;10.60;7.50
6174;DHT22;3120;48.796;9.796;2023-02-17T08:37:03;10.50;1.00
6174;DHT22;3120;48.796;9.796;2023-02-17T08:39:30;10.10;99.90
6174;DHT22;3120;48.796;9.796;2023-02-17T08:41:56;11.80;1.00
6174;DHT22;3120;48.796;9.796;2023-02-17T08:44:22;12.70;99.90
6174;DHT22;3120;48.796;9.796;2023-02-17T08:46:49;11.80;99.90
6174;DHT22;3120;48.796;9.796;2023-02-17T08:49:18;12.20;99.90
6174;DHT22;3120;48.796;9.796;2023-02-17T08:51:44;12.50;73.50
6174;DHT22;3120;48.796;9.796;2023-02-17T08:54:10;11.50;1.00
6174;DHT22;3120;48.796;9.796;2023-02-17T08:56:37;10.80;1.00
6174;DHT22;3120;48.796;9.796;2023-02-17T08:59:04;13.40;1.00
6174;DHT22;3120;48.796;9.796;2023-02-17T09:01:30;13.00;99.90
6174;DHT22;3120;48.796;9.796;2023-02-17T09:03:57;11.10;99.90
6174;DHT22;3120;48.796;9.796;2023-02-17T09:06:23;11.10;1.00
6174;DHT22;3120;48.796;9.796;2023-02-17T09:08:55;12.80;1.00
6174;DHT22;3120;48.796;9.796;2023-02-17T09:11:21;11.20;99.90
6174;DHT22;3120;48.796;9.796;2023-02-17T09:13:46;12.00;15.90
6174;DHT22;3120;48.796;9.796;2023-02-17T09:16:12;13.20;84.80
6174;DHT22;3120;48.796;9.796;2023-02-17T09:18:38;12.40;1.00
6174;DHT22;3120;48.796;9.796;2023-02-17T09:21:09;12.40;98.80
6174;DHT22;3120;48.796;9.796;2023-02-17T09:23:35;12.60;1.00
6174;DHT22;3120;48.796;9.796;2023-02-17T09:26:03;11.20;99.90
6174;DHT22;3120;48.796;9.796;2023-02-17T09:28:30;11.30;99.90
6174;DHT22;3120;48.796;9.796;2023-02-17T09:30:56;13.50;1.00
6174;DHT22;3120;48.796;9.796;2023-02-17T09:33:21;12.90;1.00
6174;DHT22;3120;48.796;9.796;2023-02-17T09:35:47;11.40;1.00
6174;DHT22;3120;48.796;9.796;2023-02-17T09:38:14;12.30;1.00
6174;DHT22;3120;48.796;9.796;2023-02-17T09:43:11;12.70;99.30
6174;DHT22;3120;48.796;9.796;2023-02-17T09:45:38;11.50;1.00
6174;DHT22;3120;48.796;9.796;2023-02-17T09:48:09;13.20;99.90
6174;DHT22;3120;48.796;9.796;2023-02-17T09:55:51;11.50;99.90
6174;DHT22;3120;48.796;9.796;2023-02-17T10:00:54;11.60;1.00
6174;DHT22;3120;48.796;9.796;2023-02-17T10:03:36;11.60;99.90
6174;DHT22;3120;48.796;9.796;2023-02-17T10:06:25;11.50;99.90
6174;DHT22;3120;48.796;9.796;2023-02-17T10:09:14;10.70;1.00
6174;DHT22;3120;48.796;9.796;2023-02-17T10:16:59;11.60;99.90
6174;DHT22;3120;48.796;9.796;2023-02-17T10:19:42;12.70;99.90
6174;DHT22;3120;48.796;9.796;2023-02-17T10:22:21;13.70;99.90
6174;DHT22;3120;48.796;9.796;2023-02-17T10:24:47;13.10;99.90
6174;DHT22;3120;48.796;9.796;2023-02-17T10:30:13;12.40;99.90
6174;DHT22;3120;48.796;9.796;2023-02-17T10:33:00;11.80;99.90
6174;DHT22;3120;48.796;9.796;2023-02-17T10:35:33;11.80;99.90
6174;DHT22;3120;48.796;9.796;2023-02-17T10:41:14;11.90;56.50
6174;DHT22;3120;48.796;9.796;2023-02-17T10:43:41;11.90;1.00
6174;DHT22;3120;48.796;9.796;2023-02-17T10:46:08;12.00;1.00
6174;DHT22;3120;48.796;9.796;2023-02-17T10:48:45;13.40;1.00
6174;DHT22;3120;48.796;9.796;2023-02-17T10:51:19;13.50;1.00
6174;DHT22;3120;48.796;9.796;2023-02-17T10:53:51;12.00;1.00
6174;DHT22;3120;48.796;9.796;2023-02-17T10:56:33;13.70;99.90
6174;DHT22;3120;48.796;9.796;2023-02-17T10:59:10;14.50;1.00
6174;DHT22;3120;48.796;9.796;2023-02-17T11:01:37;14.10;99.90
6174;DHT22;3120;48.796;9.796;2023-02-17T11:04:08;14.50;99.90
6174;DHT22;3120;48.796;9.796;2023-02-17T11:06:42;12.50;99.90
6174;DHT22;3120;48.796;9.796;2023-02-17T11:09:26;13.80;1.00
6174;DHT22;3120;48.796;9.796;2023-02-17T11:12:17;12.80;99.90
6174;DHT22;3120;48.796;9.796;2023-02-17T11:14:47;12.30;1.00
6174;DHT22;3120;48.796;9.796;2023-02-17T11:17:27;12.60;99.90
6174;DHT22;3120;48.796;9.796;2023-02-17T11:20:02;12.50;1.00
6174;DHT22;3120;48.796;9.796;2023-02-17T11:22:37;14.30;99.90
6174;DHT22;3120;48.796;9.796;2023-02-17T11:27:54;12.60;99.90
6174;DHT22;3120;48.796;9.796;2023-02-17T11:30:21;13.00;1.00
6174;DHT22;3120;48.796;9.796;2023-02-17T11:32:47;12.50;1.00
6174;DHT22;3120;48.796;9.796;2023-02-17T11:35:25;12.40;99.90
6174;DHT22;3120;48.796;9.796;2023-02-17T11:38:00;12.50;99.90
6174;DHT22;3120;48.796;9.796;2023-02-17T11:40:28;13.30;99.90
6174;DHT22;3120;48.796;9.796;2023-02-17T11:42:58;12.60;1.00
6174;DHT22;3120;48.796;9.796;2023-02-17T11:45:28;12.70;1.00
6174;DHT22;3120;48.796;9.796;2023-02-17T11:48:44;12.90;99.90
6174;DHT22;3120;48.796;9.796;2023-02-17T11:54:35;13.00;99.90
6174;DHT22;3120;48.796;9.796;2023-02-17T12:05:51;13.10;99.90
6174;DHT22;3120;48.796;9.796;2023-02-17T12:08:22;12.50;71.60
6174;DHT22;3120;48.796;9.796;2023-02-17T12:11:13;13.00;1.00
6174;DHT22;3120;48.796;9.796;2023-02-17T12:13:58;13.00;1.00
6174;DHT22;3120;48.796;9.796;2023-02-17T12:19:23;12.10;1.00
6174;DHT22;3120;48.796;9.796;2023-02-17T12:27:37;12.40;1.00
6174;DHT22;3120;48.796;9.796;2023-02-17T12:30:51;12.50;1.00
6174;DHT22;3120;48.796;9.796;2023-02-17T12:33:41;12.50;1.00
6174;DHT22;3120;48.796;9.796;2023-02-17T12:36:12;12.50;1.00
6174;DHT22;3120;48.796;9.796;2023-02-17T12:38:51;13.00;1.00
6174;DHT22;3120;48.796;9.796;2023-02-17T12:41:25;12.60;1.00
6174;DHT22;3120;48.796;9.796;2023-02-17T12:43:58;12.70;1.00
6174;DHT22;3120;48.796;9.796;2023-02-17T12:46:37;13.70;1.00
6174;DHT22;3120;48.796;9.796;2023-02-17T12:49:29;12.80;1.00
6174;DHT22;3120;48.796;9.796;2023-02-17T12:52:24;12.90;1.00
6174;DHT22;3120;48.796;9.796;2023-02-17T12:55:31;12.90;1.00
6174;DHT22;3120;48.796;9.796;2023-02-17T12:58:03;12.90;1.00
6174;DHT22;3120;48.796;9.796;2023-02-17T13:00:45;12.90;1.00
6174;DHT22;3120;48.796;9.796;2023-02-17T13:03:12;12.80;1.00
6174;DHT22;3120;48.796;9.796;2023-02-17T13:05:48;13.20;1.00
6174;DHT22;3120;48.796;9.796;2023-02-17T13:08:42;13.00;1.00
6174;DHT22;3120;48.796;9.796;2023-02-17T13:11:11;13.10;1.00
6174;DHT22;3120;48.796;9.796;2023-02-17T13:13:37;13.10;1.00
6174;DHT22;3120;48.796;9.796;2023-02-17T13:16:09;13.20;1.00
6174;DHT22;3120;48.796;9.796;2023-02-17T13:18:43;13.20;1.00
6174;DHT22;3120;48.796;9.796;2023-02-17T13:24:14;13.10;1.00
6174;DHT22;3120;48.796;9.796;2023-02-17T13:26:42;13.10;1.00
6174;DHT22;3120;48.796;9.796;2023-02-17T13:29:09;13.20;1.00
6174;DHT22;3120;48.796;9.796;2023-02-17T13:31:50;13.10;1.00
6174;DHT22;3120;48.796;9.796;2023-02-17T13:34:33;13.00;1.00
6174;DHT22;3120;48.796;9.796;2023-02-17T13:37:14;13.00;1.00
6174;DHT22;3120;48.796;9.796;2023-02-17T13:39:43;12.90;1.00
6174;DHT22;3120;48.796;9.796;2023-02-17T13:42:45;13.00;1.00
6174;DHT22;3120;48.796;9.796;2023-02-17T13:47:45;13.60;1.00
6174;DHT22;3120;48.796;9.796;2023-02-17T13:50:45;12.90;1.00
6174;DHT22;3120;48.796;9.796;2023-02-17T13:53:35;12.90;1.00
6174;DHT22;3120;48.796;9.796;2023-02-17T13:56:09;12.90;1.00
6174;DHT22;3120;48.796;9.796;2023-02-17T13:59:12;12.90;1.00
6174;DHT22;3120;48.796;9.796;2023-02-17T14:01:42;13.00;1.00
6174;DHT22;3120;48.796;9.796;2023-02-17T14:04:29;13.00;1.00
6174;DHT22;3120;48.796;9.796;2023-02-17T14:07:01;13.10;1.00
6174;DHT22;3120;48.796;9.796;2023-02-17T14:09:30;13.20;1.00
6174;DHT22;3120;48.796;9.796;2023-02-17T14:11:57;13.10;1.00
6174;DHT22;3120;48.796;9.796;2023-02-17T14:14:31;13.10;1.00
6174;DHT22;3120;48.796;9.796;2023-02-17T14:17:06;13.10;1.00
6174;DHT22;3120;48.796;9.796;2023-02-17T14:20:00;13.10;1.00
6174;DHT22;3120;48.796;9.796;2023-02-17T14:22:28;13.20;99.90
6174;DHT22;3120;48.796;9.796;2023-02-17T14:25:04;13.30;1.00
6174;DHT22;3120;48.796;9.796;2023-02-17T14:27:47;13.20;99.90
6174;DHT22;3120;48.796;9.796;2023-02-17T14:30:14;13.20;1.00
6174;DHT22;3120;48.796;9.796;2023-02-17T14:33:00;13.20;99.90
6174;DHT22;3120;48.796;9.796;2023-02-17T14:35:26;13.20;99.90
6174;DHT22;3120;48.796;9.796;2023-02-17T14:37:52;13.50;99.90
6174;DHT22;3120;48.796;9.796;2023-02-17T14:40:23;13.30;99.90
6174;DHT22;3120;48.796;9.796;2023-02-17T14:42:49;13.30;99.90
6174;DHT22;3120;48.796;9.796;2023-02-17T14:45:16;13.30;99.90
6174;DHT22;3120;48.796;9.796;2023-02-17T14:47:42;13.30;99.90
6174;DHT22;3120;48.796;9.796;2023-02-17T14:50:09;13.30;99.90
6174;DHT22;3120;48.796;9.796;2023-02-17T14:52:43;13.30;99.90
6174;DHT22;3120;48.796;9.796;2023-02-17T14:55:17;13.40;99.90
6174;DHT22;3120;48.796;9.796;2023-02-17T14:57:46;13.40;99.90
6174;DHT22;3120;48.796;9.796;2023-02-17T15:00:13;13.30;1.00
6174;DHT22;3120;48.796;9.796;2023-02-17T15:02:40;13.30;1.00
6174;DHT22;3120;48.796;9.796;2023-02-17T15:05:06;13.30;1.00
6174;DHT22;3120;48.796;9.796;2023-02-17T15:07:32;13.10;1.00
6174;DHT22;3120;48.796;9.796;2023-02-17T15:09:57;13.30;1.00
6174;DHT22;3120;48.796;9.796;2023-02-17T15:12:23;13.40;1.00
6174;DHT22;3120;48.796;9.796;2023-02-17T15:14:50;13.40;1.00
6174;DHT22;3120;48.796;9.796;2023-02-17T15:17:17;13.70;1.00
6174;DHT22;3120;48.796;9.796;2023-02-17T15:19:42;13.40;1.00
6174;DHT22;3120;48.796;9.796;2023-02-17T15:22:11;13.40;1.00
6174;DHT22;3120;48.796;9.796;2023-02-17T15:24:38;13.40;1.00
6174;DHT22;3120;48.796;9.796;2023-02-17T15:27:05;13.40;1.00
6174;DHT22;3120;48.796;9.796;2023-02-17T15:29:31;13.50;1.00
6174;DHT22;3120;48.796;9.796;2023-02-17T15:31:59;13.90;1.00
6174;DHT22;3120;48.796;9.796;2023-02-17T15:34:29;13.40;1.00
6174;DHT22;3120;48.796;9.796;2023-02-17T15:36:56;13.50;1.00
6174;DHT22;3120;48.796;9.796;2023-02-17T15:39:28;13.40;1.00
6174;DHT22;3120;48.796;9.796;2023-02-17T15:41:55;13.30;1.00
6174;DHT22;3120;48.796;9.796;2023-02-17T15:44:25;13.50;1.00
6174;DHT22;3120;48.796;9.796;2023-02-17T15:46:53;13.30;1.00
6174;DHT22;3120;48.796;9.796;2023-02-17T15:49:19;13.30;1.00
6174;DHT22;3120;48.796;9.796;2023-02-17T15:51:45;13.30;1.00
6174;DHT22;3120;48.796;9.796;2023-02-17T15:54:11;14.20;1.00
6174;DHT22;3120;48.796;9.796;2023-02-17T15:56:50;13.20;1.00
6174;DHT22;3120;48.796;9.796;2023-02-17T15:59:19;13.30;1.00
6174;DHT22;3120;48.796;9.796;2023-02-17T16:01:45;13.20;1.00
6174;DHT22;3120;48.796;9.796;2023-02-17T16:04:12;13.10;1.00
6174;DHT22;3120;48.796;9.796;2023-02-17T16:06:39;13.30;1.00
6174;DHT22;3120;48.796;9.796;2023-02-17T16:09:04;13.20;1.00
6174;DHT22;3120;48.796;9.796;2023-02-17T16:11:31;13.20;1.00
6174;DHT22;3120;48.796;9.796;2023-02-17T16:13:57;13.10;1.00
6174;DHT22;3120;48.796;9.796;2023-02-17T16:16:25;13.10;1.00
6174;DHT22;3120;48.796;9.796;2023-02-17T16:19:05;13.00;1.00
6174;DHT22;3120;48.796;9.796;2023-02-17T16:21:33;13.10;1.00
6174;DHT22;3120;48.796;9.796;2023-02-17T16:23:59;13.00;1.00
6174;DHT22;3120;48.796;9.796;2023-02-17T16:26:33;13.00;1.00
6174;DHT22;3120;48.796;9.796;2023-02-17T16:29:01;13.10;1.00
6174;DHT22;3120;48.796;9.796;2023-02-17T16:31:27;13.00;1.00
6174;DHT22;3120;48.796;9.796;2023-02-17T16:33:56;13.10;1.00
6174;DHT22;3120;48.796;9.796;2023-02-17T16:36:25;13.10;1.00
6174;DHT22;3120;48.796;9.796;2023-02-17T16:38:54;13.00;1.00
6174;DHT22;3120;48.796;9.796;2023-02-17T16:41:28;13.40;1.00
6174;DHT22;3120;48.796;9.796;2023-02-17T16:43:53;13.00;1.00
6174;DHT22;3120;48.796;9.796;2023-02-17T16:46:31;13.40;1.00
6174;DHT22;3120;48.796;9.796;2023-02-17T16:48:58;13.00;1.00
6174;DHT22;3120;48.796;9.796;2023-02-17T16:51:24;13.40;1.00
6174;DHT22;3120;48.796;9.796;2023-02-17T16:53:50;12.90;1.00
6174;DHT22;3120;48.796;9.796;2023-02-17T16:56:35;13.00;1.00
6174;DHT22;3120;48.796;9.796;2023-02-17T16:59:02;13.10;1.00
6174;DHT22;3120;48.796;9.796;2023-02-17T17:01:27;13.30;1.00
6174;DHT22;3120;48.796;9.796;2023-02-17T17:03:53;13.00;1.00
6174;DHT22;3120;48.796;9.796;2023-02-17T17:06:20;13.30;1.00
6174;DHT22;3120;48.796;9.796;2023-02-17T17:08:47;13.10;1.00
6174;DHT22;3120;48.796;9.796;2023-02-17T17:11:15;13.10;1.00
6174;DHT22;3120;48.796;9.796;2023-02-17T17:13:43;13.20;1.00
6174;DHT22;3120;48.796;9.796;2023-02-17T17:16:15;13.30;1.00
6174;DHT22;3120;48.796;9.796;2023-02-17T17:18:42;13.20;1.00
6174;DHT22;3120;48.796;9.796;2023-02-17T17:21:12;13.20;1.00
6174;DHT22;3120;48.796;9.796;2023-02-17T17:23:39;13.20;1.00
6174;DHT22;3120;48.796;9.796;2023-02-17T17:26:25;13.30;1.00
6174;DHT22;3120;48.796;9.796;2023-02-17T17:28:52;13.30;1.00
6174;DHT22;3120;48.796;9.796;2023-02-17T17:31:18;13.30;1.00
6174;DHT22;3120;48.796;9.796;2023-02-17T17:33:45;13.30;1.00
6174;DHT22;3120;48.796;9.796;2023-02-17T17:36:31;13.20;1.00
6174;DHT22;3120;48.796;9.796;2023-02-17T17:38:58;13.30;1.00
6174;DHT22;3120;48.796;9.796;2023-02-17T17:41:25;13.30;1.00
6174;DHT22;3120;48.796;9.796;2023-02-17T17:43:51;13.20;1.00
6174;DHT22;3120;48.796;9.796;2023-02-17T17:46:20;13.20;1.00
6174;DHT22;3120;48.796;9.796;2023-02-17T17:48:47;13.20;1.00
6174;DHT22;3120;48.796;9.796;2023-02-17T17:51:20;14.20;1.00
6174;DHT22;3120;48.796;9.796;2023-02-17T17:53:47;13.30;1.00
6174;DHT22;3120;48.796;9.796;2023-02-17T17:56:19;14.10;1.00